sensor_id;sensor_type;location;lat;lon;timestamp;pressure;altitude;pressure_sealevel;temperature;humidity
82262;BME280;71861;52.364;6.580;2024-01-16T04:01:15;100887.00;;;-1.87;100.00
82262;BME280;71861;52.364;6.580;2024-01-16T04:03:40;100892.00;;;-1.85;100.00
82262;BME280;71861;52.364;6.580;2024-01-16T04:06:18;100885.19;;;-1.85;100.00
82262;BME280;71861;52.364;6.580;2024-01-16T04:08:44;100884.31;;;-1.84;100.00
82262;BME280;71861;52.364;6.580;2024-01-16T04:11:13;100890.22;;;-1.83;100.00
82262;BME280;71861;52.364;6.580;2024-01-16T04:13:39;100883.25;;;-1.80;100.00
82262;BME280;71861;52.364;6.580;2024-01-16T04:16:05;100900.00;;;-1.76;100.00
82262;BME280;71861;52.364;6.580;2024-01-16T04:18:36;100887.44;;;-1.79;100.00
82262;BME280;71861;52.364;6.580;2024-01-16T04:21:02;100893.44;;;-1.80;100.00
82262;BME280;71861;52.364;6.580;2024-01-16T04:23:28;100894.34;;;-1.81;100.00
82262;BME280;71861;52.364;6.580;2024-01-16T04:25:53;100897.78;;;-1.82;100.00
82262;BME280;71861;52.364;6.580;2024-01-16T04:28:18;100898.69;;;-1.83;100.00
82262;BME280;71861;52.364;6.580;2024-01-16T04:30:44;100892.69;;;-1.82;100.00
82262;BME280;71861;52.364;6.580;2024-01-16T04:33:09;100891.72;;;-1.79;100.00
82262;BME280;71861;52.364;6.580;2024-01-16T04:35:34;100887.44;;;-1.79;100.00
82262;BME280;71861;52.364;6.580;2024-01-16T04:37:59;100884.97;;;-1.80;100.00
82262;BME280;71861;52.364;6.580;2024-01-16T04:40:25;100889.00;;;-1.76;100.00
82262;BME280;71861;52.364;6.580;2024-01-16T04:42:50;100884.81;;;-1.77;100.00
82262;BME280;71861;52.364;6.580;2024-01-16T04:45:15;100884.81;;;-1.77;100.00
82262;BME280;71861;52.364;6.580;2024-01-16T04:47:41;100886.53;;;-1.78;100.00
82262;BME280;71861;52.364;6.580;2024-01-16T04:50:06;100877.91;;;-1.75;100.00
82262;BME280;71861;52.364;6.580;2024-01-16T04:52:33;100884.72;;;-1.76;100.00
82262;BME280;71861;52.364;6.580;2024-01-16T04:54:58;100884.81;;;-1.77;100.00
82262;BME280;71861;52.364;6.580;2024-01-16T04:57:23;100879.78;;;-1.79;100.00
82262;BME280;71861;52.364;6.580;2024-01-16T04:59:49;100880.63;;;-1.78;100.00
82262;BME280;71861;52.364;6.580;2024-01-16T05:02:14;100875.44;;;-1.77;100.00
82262;BME280;71861;52.364;6.580;2024-01-16T05:04:42;100880.47;;;-1.75;100.00
82262;BME280;71861;52.364;6.580;2024-01-16T05:07:07;100885.25;;;-1.69;100.00
82262;BME280;71861;52.364;6.580;2024-01-16T05:09:33;100884.25;;;-1.67;100.00
82262;BME280;71861;52.364;6.580;2024-01-16T05:11:58;100873.91;;;-1.63;100.00
82262;BME280;71861;52.364;6.580;2024-01-16T05:14:23;100872.25;;;-1.64;100.00
82262;BME280;71861;52.364;6.580;2024-01-16T05:16:51;100877.44;;;-1.66;100.00
82262;BME280;71861;52.364;6.580;2024-01-16T05:19:16;100875.88;;;-1.68;100.00
82262;BME280;71861;52.364;6.580;2024-01-16T05:21:41;100877.66;;;-1.71;100.00
82262;BME280;71861;52.364;6.580;2024-01-16T05:24:07;100878.59;;;-1.72;100.00
82262;BME280;71861;52.364;6.580;2024-01-16T05:26:33;100876.91;;;-1.73;100.00
82262;BME280;71861;52.364;6.580;2024-01-16T05:28:58;100869.44;;;-1.76;100.00
82262;BME280;71861;52.364;6.580;2024-01-16T05:31:23;100866.16;;;-1.78;100.00
82262;BME280;71861;52.364;6.580;2024-01-16T05:33:49;100867.81;;;-1.77;100.00
82262;BME280;71861;52.364;6.580;2024-01-16T05:36:14;100864.50;;;-1.79;100.00
82262;BME280;71861;52.364;6.580;2024-01-16T05:38:39;100868.78;;;-1.79;100.00
82262;BME280;71861;52.364;6.580;2024-01-16T05:41:04;100854.31;;;-1.79;100.00
82262;BME280;71861;52.364;6.580;2024-01-16T05:43:30;100845.78;;;-1.78;100.00
82262;BME280;71861;52.364;6.580;2024-01-16T05:45:55;100861.47;;;-1.70;100.00
82262;BME280;71861;52.364;6.580;2024-01-16T05:48:20;100860.00;;;-1.74;100.00
82262;BME280;71861;52.364;6.580;2024-01-16T05:50:46;100864.19;;;-1.73;100.00
82262;BME280;71861;52.364;6.580;2024-01-16T05:53:11;100863.38;;;-1.73;100.00
82262;BME280;71861;52.364;6.580;2024-01-16T05:55:36;100865.69;;;-1.68;100.00
82262;BME280;71861;52.364;6.580;2024-01-16T05:58:02;100857.13;;;-1.67;100.00
82262;BME280;71861;52.364;6.580;2024-01-16T06:00:28;100855.34;;;-1.65;100.00
82262;BME280;71861;52.364;6.580;2024-01-16T06:02:53;100855.34;;;-1.65;100.00
82262;BME280;71861;52.364;6.580;2024-01-16T06:05:18;100867.91;;;-1.62;100.00
82262;BME280;71861;52.364;6.580;2024-01-16T06:07:44;100856.72;;;-1.60;100.00
82262;BME280;71861;52.364;6.580;2024-01-16T06:10:12;100862.56;;;-1.58;100.00
82262;BME280;71861;52.364;6.580;2024-01-16T06:12:38;100860.84;;;-1.57;100.00
82262;BME280;71861;52.364;6.580;2024-01-16T06:15:04;100862.31;;;-1.53;100.00
82262;BME280;71861;52.364;6.580;2024-01-16T06:17:29;100847.78;;;-1.51;100.00
82262;BME280;71861;52.364;6.580;2024-01-16T06:19:55;100850.75;;;-1.43;100.00
82262;BME280;71861;52.364;6.580;2024-01-16T06:22:20;100849.34;;;-1.33;100.00
82262;BME280;71861;52.364;6.580;2024-01-16T06:24:46;100856.66;;;-1.27;100.00
82262;BME280;71861;52.364;6.580;2024-01-16T06:27:11;100851.41;;;-1.24;100.00
82262;BME280;71861;52.364;6.580;2024-01-16T06:29:44;100847.94;;;-1.23;100.00
82262;BME280;71861;52.364;6.580;2024-01-16T06:32:09;100844.56;;;-1.24;100.00
82262;BME280;71861;52.364;6.580;2024-01-16T06:34:34;100857.50;;;-1.27;100.00
82262;BME280;71861;52.364;6.580;2024-01-16T06:37:00;100843.16;;;-1.29;100.00
82262;BME280;71861;52.364;6.580;2024-01-16T06:39:25;100859.28;;;-1.29;100.00
82262;BME280;71861;52.364;6.580;2024-01-16T06:41:50;100863.56;;;-1.29;100.00
82262;BME280;71861;52.364;6.580;2024-01-16T06:44:15;100857.75;;;-1.31;100.00
82262;BME280;71861;52.364;6.580;2024-01-16T06:46:41;100842.03;;;-1.39;100.00
82262;BME280;71861;52.364;6.580;2024-01-16T06:49:06;100845.78;;;-1.31;100.00
82262;BME280;71861;52.364;6.580;2024-01-16T06:51:31;100840.53;;;-1.28;100.00
82262;BME280;71861;52.364;6.580;2024-01-16T06:53:57;100854.03;;;-1.26;100.00
82262;BME280;71861;52.364;6.580;2024-01-16T06:56:22;100834.22;;;-1.36;100.00
82262;BME280;71861;52.364;6.580;2024-01-16T06:58:49;100856.66;;;-1.27;100.00
82262;BME280;71861;52.364;6.580;2024-01-16T07:01:14;100860.13;;;-1.28;100.00
82262;BME280;71861;52.364;6.580;2024-01-16T07:03:40;100852.66;;;-1.31;100.00
82262;BME280;71861;52.364;6.580;2024-01-16T07:06:05;100858.63;;;-1.32;100.00
82262;BME280;71861;52.364;6.580;2024-01-16T07:08:30;100857.00;;;-1.33;100.00
82262;BME280;71861;52.364;6.580;2024-01-16T07:10:56;100850.50;;;-1.39;100.00
82262;BME280;71861;52.364;6.580;2024-01-16T07:13:21;100856.16;;;-1.34;100.00
82262;BME280;71861;52.364;6.580;2024-01-16T07:15:47;100852.81;;;-1.34;100.00
82262;BME280;71861;52.364;6.580;2024-01-16T07:18:13;100862.09;;;-1.33;100.00
82262;BME280;71861;52.364;6.580;2024-01-16T07:20:39;100863.16;;;-1.37;100.00
82262;BME280;71861;52.364;6.580;2024-01-16T07:23:04;100861.59;;;-1.40;100.00
82262;BME280;71861;52.364;6.580;2024-01-16T07:25:30;100862.50;;;-1.41;100.00
82262;BME280;71861;52.364;6.580;2024-01-16T07:27:56;100865.56;;;-1.34;100.00
82262;BME280;71861;52.364;6.580;2024-01-16T07:30:21;100871.28;;;-1.31;100.00
82262;BME280;71861;52.364;6.580;2024-01-16T07:32:46;100882.75;;;-1.22;100.00
82262;BME280;71861;52.364;6.580;2024-01-16T07:35:12;100883.25;;;-1.16;100.00
82262;BME280;71861;52.364;6.580;2024-01-16T07:37:37;100874.50;;;-1.12;100.00
82262;BME280;71861;52.364;6.580;2024-01-16T07:40:03;100879.28;;;-1.06;100.00
82262;BME280;71861;52.364;6.580;2024-01-16T07:42:31;100866.78;;;-1.10;100.00
82262;BME280;71861;52.364;6.580;2024-01-16T07:45:00;100880.34;;;-0.94;100.00
82262;BME280;71861;52.364;6.580;2024-01-16T07:47:25;100877.44;;;-0.88;100.00
82262;BME280;71861;52.364;6.580;2024-01-16T07:49:50;100894.88;;;-0.81;100.00
82262;BME280;71861;52.364;6.580;2024-01-16T07:52:16;100893.00;;;-0.77;100.00
82262;BME280;71861;52.364;6.580;2024-01-16T07:54:41;100891.81;;;-0.72;100.00
82262;BME280;71861;52.364;6.580;2024-01-16T07:57:06;100885.72;;;-0.69;100.00
82262;BME280;71861;52.364;6.580;2024-01-16T07:59:31;100886.28;;;-0.64;100.00
82262;BME280;71861;52.364;6.580;2024-01-16T08:01:57;100893.75;;;-0.61;100.00
82262;BME280;71861;52.364;6.580;2024-01-16T08:04:22;100891.97;;;-0.59;100.00
82262;BME280;71861;52.364;6.580;2024-01-16T08:06:47;100899.44;;;-0.56;100.00
82262;BME280;71861;52.364;6.580;2024-01-16T08:09:13;100894.16;;;-0.53;100.00
82262;BME280;71861;52.364;6.580;2024-01-16T08:11:39;100895.72;;;-0.51;100.00
82262;BME280;71861;52.364;6.580;2024-01-16T08:14:05;100899.84;;;-0.48;100.00
82262;BME280;71861;52.364;6.580;2024-01-16T08:16:30;100892.72;;;-0.43;100.00
82262;BME280;71861;52.364;6.580;2024-01-16T08:18:56;100896.75;;;-0.39;100.00
82262;BME280;71861;52.364;6.580;2024-01-16T08:21:21;100892.41;;;-0.37;100.00
82262;BME280;71861;52.364;6.580;2024-01-16T08:23:46;100889.84;;;-0.37;100.00
82262;BME280;71861;52.364;6.580;2024-01-16T08:26:12;100896.59;;;-0.36;100.00
82262;BME280;71861;52.364;6.580;2024-01-16T08:28:37;100894.03;;;-0.36;100.00
82262;BME280;71861;52.364;6.580;2024-01-16T08:31:04;100898.13;;;-0.34;100.00
82262;BME280;71861;52.364;6.580;2024-01-16T08:33:29;100893.84;;;-0.33;100.00
82262;BME280;71861;52.364;6.580;2024-01-16T08:35:54;100883.72;;;-0.35;100.00
82262;BME280;71861;52.364;6.580;2024-01-16T08:38:19;100889.66;;;-0.34;100.00
82262;BME280;71861;52.364;6.580;2024-01-16T08:40:45;100889.66;;;-0.34;100.00
82262;BME280;71861;52.364;6.580;2024-01-16T08:43:10;100886.19;;;-0.33;100.00
82262;BME280;71861;52.364;6.580;2024-01-16T08:45:35;100893.69;;;-0.30;100.00
82262;BME280;71861;52.364;6.580;2024-01-16T08:48:01;100891.03;;;-0.29;100.00
82262;BME280;71861;52.364;6.580;2024-01-16T08:50:26;100888.41;;;-0.27;100.00
82262;BME280;71861;52.364;6.580;2024-01-16T08:52:51;100875.06;;;-0.32;100.00
82262;BME280;71861;52.364;6.580;2024-01-16T08:55:17;100901.47;;;-0.18;100.00
82262;BME280;71861;52.364;6.580;2024-01-16T08:57:42;100894.19;;;-0.10;100.00
82262;BME280;71861;52.364;6.580;2024-01-16T09:00:07;100901.31;;;-0.01;100.00
82262;BME280;71861;52.364;6.580;2024-01-16T09:02:36;100908.53;;;0.07;100.00
82262;BME280;71861;52.364;6.580;2024-01-16T09:05:01;100906.44;;;0.14;100.00
82262;BME280;71861;52.364;6.580;2024-01-16T09:07:26;100907.78;;;0.19;100.00
82262;BME280;71861;52.364;6.580;2024-01-16T09:09:52;100906.81;;;0.22;100.00
82262;BME280;71861;52.364;6.580;2024-01-16T09:12:17;100904.16;;;0.23;100.00
82262;BME280;71861;52.364;6.580;2024-01-16T09:14:42;100903.97;;;0.26;100.00
82262;BME280;71861;52.364;6.580;2024-01-16T09:17:08;100905.44;;;0.30;100.00
82262;BME280;71861;52.364;6.580;2024-01-16T09:19:33;100910.28;;;0.35;100.00
82262;BME280;71861;52.364;6.580;2024-01-16T09:21:59;100914.19;;;0.40;100.00
82262;BME280;71861;52.364;6.580;2024-01-16T09:24:24;100908.44;;;0.37;100.00
82262;BME280;71861;52.364;6.580;2024-01-16T09:26:50;100904.22;;;0.36;100.00
82262;BME280;71861;52.364;6.580;2024-01-16T09:29:15;100895.22;;;0.30;100.00
82262;BME280;71861;52.364;6.580;2024-01-16T09:31:41;100903.44;;;0.35;100.00
82262;BME280;71861;52.364;6.580;2024-01-16T09:34:07;100909.53;;;0.33;100.00
82262;BME280;71861;52.364;6.580;2024-01-16T09:36:32;100913.09;;;0.30;100.00
82262;BME280;71861;52.364;6.580;2024-01-16T09:39:01;100908.91;;;0.29;100.00
82262;BME280;71861;52.364;6.580;2024-01-16T09:41:27;100914.91;;;0.28;100.00
82262;BME280;71861;52.364;6.580;2024-01-16T09:43:52;100913.47;;;0.24;100.00
82262;BME280;71861;52.364;6.580;2024-01-16T09:46:19;100896.13;;;0.15;100.00
82262;BME280;71861;52.364;6.580;2024-01-16T09:48:47;100911.28;;;0.18;100.00
82262;BME280;71861;52.364;6.580;2024-01-16T09:51:13;100912.91;;;0.19;100.00
82262;BME280;71861;52.364;6.580;2024-01-16T09:53:41;100915.47;;;0.19;100.00
82262;BME280;71861;52.364;6.580;2024-01-16T09:56:11;100908.53;;;0.21;100.00
82262;BME280;71861;52.364;6.580;2024-01-16T09:58:39;100895.56;;;0.24;100.00
82262;BME280;71861;52.364;6.580;2024-01-16T10:01:05;100900.31;;;0.30;100.00
82262;BME280;71861;52.364;6.580;2024-01-16T10:03:31;100910.91;;;0.38;100.00
82262;BME280;71861;52.364;6.580;2024-01-16T10:05:56;100895.94;;;0.32;100.00
82262;BME280;71861;52.364;6.580;2024-01-16T10:08:25;100889.00;;;0.34;100.00
82262;BME280;71861;52.364;6.580;2024-01-16T10:10:51;100892.47;;;0.47;100.00
82262;BME280;71861;52.364;6.580;2024-01-16T10:13:17;100890.66;;;0.49;100.00
82262;BME280;71861;52.364;6.580;2024-01-16T10:15:42;100886.06;;;0.54;100.00
82262;BME280;71861;52.364;6.580;2024-01-16T10:18:21;100887.44;;;0.60;100.00
82262;BME280;71861;52.364;6.580;2024-01-16T10:20:48;100883.84;;;0.62;100.00
82262;BME280;71861;52.364;6.580;2024-01-16T10:23:22;100873.06;;;0.57;100.00
82262;BME280;71861;52.364;6.580;2024-01-16T10:26:04;100890.16;;;0.71;100.00
82262;BME280;71861;52.364;6.580;2024-01-16T10:28:30;100889.31;;;0.70;100.00
82262;BME280;71861;52.364;6.580;2024-01-16T10:31:02;100885.66;;;0.74;100.00
82262;BME280;71861;52.364;6.580;2024-01-16T10:33:27;100886.28;;;0.78;100.00
82262;BME280;71861;52.364;6.580;2024-01-16T10:36:07;100880.25;;;0.79;100.00
82262;BME280;71861;52.364;6.580;2024-01-16T10:38:34;100877.94;;;0.88;100.00
82262;BME280;71861;52.364;6.580;2024-01-16T10:41:06;100867.22;;;0.83;100.00
82262;BME280;71861;52.364;6.580;2024-01-16T10:43:33;100873.03;;;0.85;100.00
82262;BME280;71861;52.364;6.580;2024-01-16T10:48:39;100874.69;;;0.86;100.00
82262;BME280;71861;52.364;6.580;2024-01-16T10:51:10;100876.13;;;0.90;100.00
82262;BME280;71861;52.364;6.580;2024-01-16T10:53:37;100871.00;;;0.90;100.00
82262;BME280;71861;52.364;6.580;2024-01-16T10:56:09;100863.25;;;0.92;100.00
82262;BME280;71861;52.364;6.580;2024-01-16T10:58:36;100867.88;;;0.99;100.00
82262;BME280;71861;52.364;6.580;2024-01-16T11:01:02;100851.97;;;0.94;100.00
82262;BME280;71861;52.364;6.580;2024-01-16T11:06:08;100866.69;;;1.05;100.00
82262;BME280;71861;52.364;6.580;2024-01-16T11:08:38;100867.28;;;1.08;100.00
82262;BME280;71861;52.364;6.580;2024-01-16T11:11:05;100869.34;;;1.03;100.00
82262;BME280;71861;52.364;6.580;2024-01-16T11:13:35;100867.69;;;1.02;100.00
82262;BME280;71861;52.364;6.580;2024-01-16T11:16:04;100874.97;;;1.08;100.00
82262;BME280;71861;52.364;6.580;2024-01-16T11:18:31;100876.53;;;1.11;100.00
82262;BME280;71861;52.364;6.580;2024-01-16T11:20:58;100871.50;;;1.09;100.00
82262;BME280;71861;52.364;6.580;2024-01-16T11:23:24;100876.63;;;1.09;100.00
82262;BME280;71861;52.364;6.580;2024-01-16T11:25:50;100868.75;;;1.12;100.00
82262;BME280;71861;52.364;6.580;2024-01-16T11:28:15;100860.97;;;1.14;100.00
82262;BME280;71861;52.364;6.580;2024-01-16T11:30:41;100865.38;;;1.12;100.00
82262;BME280;71861;52.364;6.580;2024-01-16T11:35:59;100865.59;;;1.21;100.00
82262;BME280;71861;52.364;6.580;2024-01-16T11:38:25;100855.81;;;1.28;100.00
82262;BME280;71861;52.364;6.580;2024-01-16T11:40:54;100839.06;;;1.22;100.00
82262;BME280;71861;52.364;6.580;2024-01-16T11:45:59;100839.22;;;1.33;100.00
82262;BME280;71861;52.364;6.580;2024-01-16T11:48:25;100841.06;;;1.44;100.00
82262;BME280;71861;52.364;6.580;2024-01-16T11:50:52;100844.69;;;1.54;100.00
82262;BME280;71861;52.364;6.580;2024-01-16T12:01:45;100835.38;;;1.65;100.00
82262;BME280;71861;52.364;6.580;2024-01-16T12:04:10;100819.25;;;1.63;100.00
82262;BME280;71861;52.364;6.580;2024-01-16T12:06:36;100821.44;;;1.69;100.00
82262;BME280;71861;52.364;6.580;2024-01-16T12:09:12;100822.03;;;1.73;100.00
82262;BME280;71861;52.364;6.580;2024-01-16T12:11:39;100814.25;;;1.74;100.00
82262;BME280;71861;52.364;6.580;2024-01-16T12:14:04;100806.78;;;1.71;100.00
82262;BME280;71861;52.364;6.580;2024-01-16T12:16:30;100800.53;;;1.76;100.00
82262;BME280;71861;52.364;6.580;2024-01-16T12:19:08;100797.78;;;1.79;100.00
82262;BME280;71861;52.364;6.580;2024-01-16T12:21:41;100796.22;;;1.76;99.72
82262;BME280;71861;52.364;6.580;2024-01-16T12:24:07;100783.94;;;1.68;99.99
82262;BME280;71861;52.364;6.580;2024-01-16T12:26:32;100788.25;;;1.68;100.00
82262;BME280;71861;52.364;6.580;2024-01-16T12:28:58;100788.84;;;1.71;100.00
82262;BME280;71861;52.364;6.580;2024-01-16T12:31:24;100784.44;;;1.73;99.14
82262;BME280;71861;52.364;6.580;2024-01-16T12:33:50;100780.94;;;1.74;98.90
82262;BME280;71861;52.364;6.580;2024-01-16T12:36:16;100779.84;;;1.79;98.88
82262;BME280;71861;52.364;6.580;2024-01-16T12:38:42;100784.75;;;1.82;99.33
82262;BME280;71861;52.364;6.580;2024-01-16T12:41:09;100778.28;;;1.76;98.11
82262;BME280;71861;52.364;6.580;2024-01-16T12:43:36;100787.22;;;1.83;97.47
82262;BME280;71861;52.364;6.580;2024-01-16T12:46:05;100790.09;;;1.91;97.69
82262;BME280;71861;52.364;6.580;2024-01-16T12:48:31;100787.00;;;1.99;96.67
82262;BME280;71861;52.364;6.580;2024-01-16T12:51:03;100782.50;;;1.90;96.59
82262;BME280;71861;52.364;6.580;2024-01-16T12:53:29;100788.22;;;1.81;97.12
82262;BME280;71861;52.364;6.580;2024-01-16T12:55:58;100783.22;;;1.66;95.97
82262;BME280;71861;52.364;6.580;2024-01-16T12:58:34;100771.00;;;1.57;96.85
82262;BME280;71861;52.364;6.580;2024-01-16T13:01:26;100775.31;;;1.44;96.47
82262;BME280;71861;52.364;6.580;2024-01-16T13:03:52;100763.94;;;1.36;97.34
82262;BME280;71861;52.364;6.580;2024-01-16T13:06:18;100767.44;;;1.35;97.85
82262;BME280;71861;52.364;6.580;2024-01-16T13:08:45;100767.66;;;1.44;96.65
82262;BME280;71861;52.364;6.580;2024-01-16T13:11:11;100765.19;;;1.55;96.63
82262;BME280;71861;52.364;6.580;2024-01-16T13:13:36;100763.44;;;1.81;98.49
82262;BME280;71861;52.364;6.580;2024-01-16T13:16:03;100764.56;;;2.26;97.11
82262;BME280;71861;52.364;6.580;2024-01-16T13:18:33;100746.59;;;2.62;95.40
82262;BME280;71861;52.364;6.580;2024-01-16T13:21:01;100750.75;;;3.10;94.38
82262;BME280;71861;52.364;6.580;2024-01-16T13:23:27;100752.22;;;3.36;92.33
82262;BME280;71861;52.364;6.580;2024-01-16T13:25:54;100758.78;;;3.51;88.08
82262;BME280;71861;52.364;6.580;2024-01-16T13:28:21;100764.63;;;3.53;88.43
82262;BME280;71861;52.364;6.580;2024-01-16T13:30:48;100759.47;;;3.42;87.49
82262;BME280;71861;52.364;6.580;2024-01-16T13:33:14;100753.59;;;3.29;87.03
82262;BME280;71861;52.364;6.580;2024-01-16T13:35:43;100749.66;;;3.36;87.90
82262;BME280;71861;52.364;6.580;2024-01-16T13:38:10;100753.69;;;3.16;86.43
82262;BME280;71861;52.364;6.580;2024-01-16T13:40:36;100752.31;;;2.89;86.16
82262;BME280;71861;52.364;6.580;2024-01-16T13:43:03;100740.25;;;2.55;85.43
82262;BME280;71861;52.364;6.580;2024-01-16T13:45:28;100750.16;;;2.48;87.66
82262;BME280;71861;52.364;6.580;2024-01-16T13:47:54;100759.84;;;2.32;88.59
82262;BME280;71861;52.364;6.580;2024-01-16T13:50:20;100749.22;;;2.13;89.65
82262;BME280;71861;52.364;6.580;2024-01-16T13:52:45;100732.44;;;1.97;89.67
82262;BME280;71861;52.364;6.580;2024-01-16T13:55:11;100742.50;;;1.87;90.63
82262;BME280;71861;52.364;6.580;2024-01-16T13:57:37;100743.25;;;1.77;90.80
82262;BME280;71861;52.364;6.580;2024-01-16T14:00:04;100738.22;;;1.62;90.51
82262;BME280;71861;52.364;6.580;2024-01-16T14:02:29;100747.69;;;1.49;91.24
82262;BME280;71861;52.364;6.580;2024-01-16T14:04:55;100739.38;;;1.33;91.53
82262;BME280;71861;52.364;6.580;2024-01-16T14:07:21;100746.03;;;1.23;92.47
82262;BME280;71861;52.364;6.580;2024-01-16T14:09:46;100739.66;;;1.16;93.23
82262;BME280;71861;52.364;6.580;2024-01-16T14:12:12;100734.41;;;1.05;92.77
82262;BME280;71861;52.364;6.580;2024-01-16T14:14:39;100746.31;;;1.06;93.36
82262;BME280;71861;52.364;6.580;2024-01-16T14:17:05;100746.59;;;1.02;93.54
82262;BME280;71861;52.364;6.580;2024-01-16T14:19:30;100734.09;;;0.97;93.63
82262;BME280;71861;52.364;6.580;2024-01-16T14:21:56;100729.91;;;0.96;93.88
82262;BME280;71861;52.364;6.580;2024-01-16T14:24:21;100732.56;;;0.95;93.08
82262;BME280;71861;52.364;6.580;2024-01-16T14:26:47;100741.25;;;0.92;93.71
82262;BME280;71861;52.364;6.580;2024-01-16T14:29:12;100733.06;;;0.87;93.59
82262;BME280;71861;52.364;6.580;2024-01-16T14:31:40;100729.06;;;0.83;94.44
82262;BME280;71861;52.364;6.580;2024-01-16T14:34:10;100731.00;;;0.80;94.49
82262;BME280;71861;52.364;6.580;2024-01-16T14:36:39;100730.47;;;0.75;94.70
82262;BME280;71861;52.364;6.580;2024-01-16T14:39:04;100724.91;;;0.68;94.82
82262;BME280;71861;52.364;6.580;2024-01-16T14:41:30;100729.34;;;0.66;94.16
82262;BME280;71861;52.364;6.580;2024-01-16T14:43:57;100722.84;;;0.61;94.85
82262;BME280;71861;52.364;6.580;2024-01-16T14:46:22;100713.75;;;0.57;94.98
82262;BME280;71861;52.364;6.580;2024-01-16T14:48:47;100719.84;;;0.54;95.44
82262;BME280;71861;52.364;6.580;2024-01-16T14:51:13;100717.59;;;0.50;95.49
82262;BME280;71861;52.364;6.580;2024-01-16T14:53:39;100710.13;;;0.47;94.47
82262;BME280;71861;52.364;6.580;2024-01-16T14:56:04;100700.56;;;0.36;95.93
82262;BME280;71861;52.364;6.580;2024-01-16T14:58:30;100718.38;;;0.38;96.15
82262;BME280;71861;52.364;6.580;2024-01-16T15:00:56;100709.38;;;0.32;95.17
82262;BME280;71861;52.364;6.580;2024-01-16T15:03:22;100705.44;;;0.27;95.59
82262;BME280;71861;52.364;6.580;2024-01-16T15:05:49;100719.06;;;0.27;96.87
82262;BME280;71861;52.364;6.580;2024-01-16T15:08:14;100712.06;;;0.17;95.89
82262;BME280;71861;52.364;6.580;2024-01-16T15:10:40;100712.44;;;0.11;96.02
82262;BME280;71861;52.364;6.580;2024-01-16T15:13:05;100717.84;;;0.06;96.09
82262;BME280;71861;52.364;6.580;2024-01-16T15:15:31;100704.59;;;-0.01;96.75
82262;BME280;71861;52.364;6.580;2024-01-16T15:17:56;100713.09;;;0.00;96.93
82262;BME280;71861;52.364;6.580;2024-01-16T15:20:21;100707.72;;;-0.10;97.22
82262;BME280;71861;52.364;6.580;2024-01-16T15:22:47;100711.19;;;-0.11;96.76
82262;BME280;71861;52.364;6.580;2024-01-16T15:25:17;100711.56;;;-0.17;96.83
82262;BME280;71861;52.364;6.580;2024-01-16T15:27:46;100706.81;;;-0.23;96.78
82262;BME280;71861;52.364;6.580;2024-01-16T15:30:13;100704.44;;;-0.26;97.00
82262;BME280;71861;52.364;6.580;2024-01-16T15:32:39;100700.66;;;-0.33;97.41
82262;BME280;71861;52.364;6.580;2024-01-16T15:35:05;100710.31;;;-0.38;97.62
82262;BME280;71861;52.364;6.580;2024-01-16T15:37:33;100704.56;;;-0.41;97.56
82262;BME280;71861;52.364;6.580;2024-01-16T15:39:59;100712.94;;;-0.39;98.67
82262;BME280;71861;52.364;6.580;2024-01-16T15:42:25;100711.94;;;-0.37;98.02
82262;BME280;71861;52.364;6.580;2024-01-16T15:44:52;100711.66;;;-0.32;98.18
82262;BME280;71861;52.364;6.580;2024-01-16T15:47:18;100714.13;;;-0.31;98.21
82262;BME280;71861;52.364;6.580;2024-01-16T15:49:43;100710.56;;;-0.28;98.71
82262;BME280;71861;52.364;6.580;2024-01-16T15:52:09;100705.28;;;-0.25;98.35
82262;BME280;71861;52.364;6.580;2024-01-16T15:54:34;100708.53;;;-0.23;98.08
82262;BME280;71861;52.364;6.580;2024-01-16T15:56:59;100705.09;;;-0.22;97.88
82262;BME280;71861;52.364;6.580;2024-01-16T15:59:25;100703.28;;;-0.20;97.84
82262;BME280;71861;52.364;6.580;2024-01-16T16:01:51;100708.72;;;-0.26;97.87
82262;BME280;71861;52.364;6.580;2024-01-16T16:04:16;100710.84;;;-0.33;97.44
82262;BME280;71861;52.364;6.580;2024-01-16T16:06:42;100714.84;;;-0.43;98.05
82262;BME280;71861;52.364;6.580;2024-01-16T16:09:08;100712.13;;;-0.54;98.65
82262;BME280;71861;52.364;6.580;2024-01-16T16:11:41;100706.03;;;-0.65;99.01
82262;BME280;71861;52.364;6.580;2024-01-16T16:14:07;100699.00;;;-0.76;98.97
82262;BME280;71861;52.364;6.580;2024-01-16T16:16:32;100706.19;;;-0.82;99.34
82262;BME280;71861;52.364;6.580;2024-01-16T16:18:58;100720.00;;;-0.86;100.00
82262;BME280;71861;52.364;6.580;2024-01-16T16:21:24;100713.63;;;-0.93;100.00
82262;BME280;71861;52.364;6.580;2024-01-16T16:23:50;100710.50;;;-0.98;100.00
82262;BME280;71861;52.364;6.580;2024-01-16T16:26:37;100712.50;;;-1.03;100.00
82262;BME280;71861;52.364;6.580;2024-01-16T16:29:05;100719.53;;;-1.07;100.00
82262;BME280;71861;52.364;6.580;2024-01-16T16:31:31;100717.31;;;-1.13;100.00
82262;BME280;71861;52.364;6.580;2024-01-16T16:34:01;100709.94;;;-1.17;100.00
82262;BME280;71861;52.364;6.580;2024-01-16T16:36:26;100709.94;;;-1.17;100.00
82262;BME280;71861;52.364;6.580;2024-01-16T16:38:53;100718.66;;;-1.21;100.00
82262;BME280;71861;52.364;6.580;2024-01-16T16:41:20;100713.06;;;-1.28;100.00
82262;BME280;71861;52.364;6.580;2024-01-16T16:43:46;100711.59;;;-1.32;100.00
82262;BME280;71861;52.364;6.580;2024-01-16T16:46:16;100705.34;;;-1.26;100.00
82262;BME280;71861;52.364;6.580;2024-01-16T16:48:48;100707.00;;;-1.25;100.00
82262;BME280;71861;52.364;6.580;2024-01-16T16:51:16;100707.09;;;-1.27;100.00
82262;BME280;71861;52.364;6.580;2024-01-16T16:53:42;100703.88;;;-1.30;100.00
82262;BME280;71861;52.364;6.580;2024-01-16T16:56:11;100705.84;;;-1.35;100.00
82262;BME280;71861;52.364;6.580;2024-01-16T16:58:44;100707.69;;;-1.37;100.00
82262;BME280;71861;52.364;6.580;2024-01-16T17:01:10;100709.31;;;-1.36;100.00
82262;BME280;71861;52.364;6.580;2024-01-16T17:03:36;100711.13;;;-1.38;100.00